createdAt,value
2023-01-13T00:01:12.852Z,-1.12
2023-01-13T00:03:39.678Z,-1.13
2023-01-13T00:06:07.049Z,-1.20
2023-01-13T00:08:33.832Z,-1.24
2023-01-13T00:11:00.425Z,-1.24
2023-01-13T00:13:26.986Z,-1.26
2023-01-13T00:16:01.030Z,-1.29
2023-01-13T00:18:28.668Z,-1.34
2023-01-13T00:21:07.683Z,-1.42
2023-01-13T00:23:35.627Z,-1.47
2023-01-13T00:26:05.741Z,-1.50
2023-01-13T00:28:32.681Z,-1.53
2023-01-13T00:31:26.645Z,-1.58
2023-01-13T00:33:53.253Z,-1.56
2023-01-13T00:36:20.875Z,-1.53
2023-01-13T00:38:47.870Z,-1.55
2023-01-13T00:41:18.261Z,-1.55
2023-01-13T00:43:45.406Z,-1.58
2023-01-13T00:46:14.852Z,-1.62
2023-01-13T00:48:41.676Z,-1.64
2023-01-13T00:51:11.862Z,-1.60
2023-01-13T00:53:44.362Z,-1.51
2023-01-13T00:56:16.630Z,-1.40
2023-01-13T00:58:44.728Z,-1.37
2023-01-13T01:01:22.494Z,-1.38
2023-01-13T01:03:53.437Z,-1.34
2023-01-13T01:06:22.522Z,-1.27
2023-01-13T01:08:49.218Z,-1.22
2023-01-13T01:11:18.992Z,-1.11
2023-01-13T01:13:46.147Z,-1.05
2023-01-13T01:16:15.945Z,-0.99
2023-01-13T01:18:46.741Z,-0.98
2023-01-13T01:21:14.633Z,-0.94
2023-01-13T01:23:41.988Z,-0.91
2023-01-13T01:26:12.837Z,-0.91
2023-01-13T01:28:39.855Z,-0.90
2023-01-13T01:31:13.011Z,-0.91
2023-01-13T01:33:41.098Z,-0.90
2023-01-13T01:36:09.816Z,-0.89
2023-01-13T01:38:36.584Z,-0.87
2023-01-13T01:41:03.507Z,-0.86
2023-01-13T01:44:02.789Z,-0.81
2023-01-13T01:46:39.689Z,-0.75
2023-01-13T01:49:15.463Z,-0.70
2023-01-13T01:51:48.872Z,-0.66
2023-01-13T01:54:20.264Z,-0.62
2023-01-13T01:56:47.718Z,-0.55
2023-01-13T01:59:16.147Z,-0.51
2023-01-13T02:01:43.946Z,-0.48
2023-01-13T02:04:22.639Z,-0.48
2023-01-13T02:06:50.642Z,-0.50
2023-01-13T02:09:17.389Z,-0.52
2023-01-13T02:12:02.509Z,-0.55
2023-01-13T02:14:29.847Z,-0.57
2023-01-13T02:17:35.059Z,-0.55
2023-01-13T02:20:19.918Z,-0.58
2023-01-13T02:23:05.023Z,-0.60
2023-01-13T02:25:43.786Z,-0.62
2023-01-13T02:28:22.634Z,-0.66
2023-01-13T02:31:19.371Z,-0.66
2023-01-13T02:34:09.632Z,-0.66
2023-01-13T02:37:00.357Z,-0.69
2023-01-13T02:39:29.748Z,-0.65
2023-01-13T02:42:28.419Z,-0.61
2023-01-13T02:45:18.684Z,-0.56
2023-01-13T02:47:50.254Z,-0.49
2023-01-13T02:50:20.739Z,-0.49
2023-01-13T02:53:20.237Z,-0.45
2023-01-13T02:55:51.396Z,-0.43
2023-01-13T02:58:24.133Z,-0.42
2023-01-13T03:00:51.139Z,-0.39
2023-01-13T03:03:17.943Z,-0.40
2023-01-13T03:05:46.686Z,-0.41
2023-01-13T03:08:19.371Z,-0.43
2023-01-13T03:11:05.936Z,-0.41
2023-01-13T03:13:53.718Z,-0.42
2023-01-13T03:16:48.269Z,-0.45
2023-01-13T03:19:17.895Z,-0.44
2023-01-13T03:21:55.478Z,-0.44
2023-01-13T03:24:42.361Z,-0.49
2023-01-13T03:27:14.779Z,-0.48
2023-01-13T03:29:48.802Z,-0.48
2023-01-13T03:32:21.425Z,-0.50
2023-01-13T03:34:53.367Z,-0.60
2023-01-13T03:37:26.841Z,-0.62
2023-01-13T03:40:00.345Z,-0.61
2023-01-13T03:42:31.026Z,-0.61
2023-01-13T03:45:21.580Z,-0.60
2023-01-13T03:47:55.340Z,-0.59
2023-01-13T03:50:28.276Z,-0.57
2023-01-13T03:53:19.621Z,-0.53
2023-01-13T03:55:52.438Z,-0.48
2023-01-13T03:58:45.831Z,-0.44
2023-01-13T04:01:19.285Z,-0.44
2023-01-13T04:04:08.511Z,-0.42
2023-01-13T04:06:41.035Z,-0.39
2023-01-13T04:09:07.655Z,-0.39
2023-01-13T04:11:49.284Z,-0.37
2023-01-13T04:14:19.393Z,-0.35
2023-01-13T04:16:47.311Z,-0.36
2023-01-13T04:19:13.972Z,-0.37
2023-01-13T04:21:40.626Z,-0.36
2023-01-13T04:24:08.819Z,-0.38
2023-01-13T04:26:35.475Z,-0.45
2023-01-13T04:29:02.403Z,-0.43
2023-01-13T04:31:29.047Z,-0.41
2023-01-13T04:33:55.816Z,-0.43
2023-01-13T04:36:27.515Z,-0.42
2023-01-13T04:38:57.247Z,-0.42
2023-01-13T04:41:23.849Z,-0.40
2023-01-13T04:43:50.440Z,-0.37
2023-01-13T04:46:17.087Z,-0.34
2023-01-13T04:48:43.659Z,-0.32
2023-01-13T04:51:10.331Z,-0.29
2023-01-13T04:53:36.861Z,-0.26
2023-01-13T04:56:03.488Z,-0.25
2023-01-13T04:58:30.007Z,-0.25
2023-01-13T05:00:56.703Z,-0.24
2023-01-13T05:03:24.408Z,-0.25
2023-01-13T05:05:52.224Z,-0.27
2023-01-13T05:08:18.777Z,-0.31
2023-01-13T05:10:45.317Z,-0.38
2023-01-13T05:13:30.400Z,-0.38
2023-01-13T05:16:15.573Z,-0.39
2023-01-13T05:18:42.123Z,-0.41
2023-01-13T05:21:28.700Z,-0.42
2023-01-13T05:24:13.427Z,-0.45
2023-01-13T05:26:40.038Z,-0.48
2023-01-13T05:29:06.607Z,-0.52
2023-01-13T05:31:33.776Z,-0.57
2023-01-13T05:34:00.535Z,-0.61
2023-01-13T05:36:27.060Z,-0.61
2023-01-13T05:38:53.688Z,-0.58
2023-01-13T05:41:40.674Z,-0.53
2023-01-13T05:44:07.269Z,-0.47
2023-01-13T05:46:34.017Z,-0.42
2023-01-13T05:49:01.661Z,-0.37
2023-01-13T05:51:28.271Z,-0.36
2023-01-13T05:53:54.831Z,-0.40
2023-01-13T05:56:21.395Z,-0.39
2023-01-13T05:58:47.942Z,-0.39
2023-01-13T06:01:14.559Z,-0.36
2023-01-13T06:03:41.168Z,-0.35
2023-01-13T06:06:08.996Z,-0.33
2023-01-13T06:08:37.493Z,-0.31
2023-01-13T06:11:06.124Z,-0.28
2023-01-13T06:13:32.711Z,-0.26
2023-01-13T06:15:59.799Z,-0.25
2023-01-13T06:18:27.278Z,-0.26
2023-01-13T06:20:54.049Z,-0.27
2023-01-13T06:23:20.972Z,-0.29
2023-01-13T06:26:15.576Z,-0.30
2023-01-13T06:28:42.152Z,-0.32
2023-01-13T06:31:10.296Z,-0.34
2023-01-13T06:33:41.207Z,-0.33
2023-01-13T06:36:16.254Z,-0.33
2023-01-13T06:38:45.621Z,-0.35
2023-01-13T06:41:12.210Z,-0.35
2023-01-13T06:43:39.809Z,-0.34
2023-01-13T06:46:06.471Z,-0.37
2023-01-13T06:48:35.374Z,-0.37
2023-01-13T06:51:03.116Z,-0.36
2023-01-13T06:53:29.717Z,-0.37
2023-01-13T06:55:56.261Z,-0.33
2023-01-13T06:58:22.878Z,-0.29
2023-01-13T07:00:51.403Z,-0.26
2023-01-13T07:03:19.197Z,-0.21
2023-01-13T07:05:52.955Z,-0.17
2023-01-13T07:08:19.789Z,-0.12
2023-01-13T07:10:46.425Z,-0.08
2023-01-13T07:13:31.794Z,-0.06
2023-01-13T07:16:03.873Z,-0.02
2023-01-13T07:18:32.501Z,0.03
2023-01-13T07:21:01.681Z,0.08
2023-01-13T07:23:30.619Z,0.10
2023-01-13T07:25:58.463Z,0.09
2023-01-13T07:28:26.750Z,0.15
2023-01-13T07:30:53.390Z,0.19
2023-01-13T07:33:20.457Z,0.26
2023-01-13T07:35:48.848Z,0.31
2023-01-13T07:38:16.169Z,0.39
2023-01-13T07:40:42.860Z,0.49
2023-01-13T07:43:30.955Z,0.57
2023-01-13T07:46:03.225Z,0.68
2023-01-13T07:48:31.113Z,0.78
2023-01-13T07:51:05.285Z,0.87
2023-01-13T07:53:31.974Z,0.95
2023-01-13T07:55:59.337Z,1.01
2023-01-13T07:58:26.672Z,1.11
2023-01-13T08:00:53.724Z,1.19
2023-01-13T08:03:20.604Z,1.28
2023-01-13T08:05:47.347Z,1.36
2023-01-13T08:08:14.534Z,1.41
2023-01-13T08:10:41.148Z,1.49
2023-01-13T08:13:20.252Z,1.53
2023-01-13T08:15:58.574Z,1.58
2023-01-13T08:18:25.205Z,1.58
2023-01-13T08:20:52.888Z,1.62
2023-01-13T08:23:20.740Z,1.63
2023-01-13T08:25:47.485Z,1.67
2023-01-13T08:28:15.859Z,1.71
2023-01-13T08:30:43.361Z,1.71
2023-01-13T08:33:12.017Z,1.73
2023-01-13T08:35:40.715Z,1.77
2023-01-13T08:38:08.077Z,1.76
2023-01-13T08:40:36.443Z,1.76
2023-01-13T08:43:03.171Z,1.81
2023-01-13T08:45:29.851Z,1.86
2023-01-13T08:47:56.509Z,1.89
2023-01-13T08:50:23.192Z,1.94
2023-01-13T08:52:50.965Z,1.95
2023-01-13T08:55:17.598Z,1.96
2023-01-13T08:57:44.451Z,1.97
2023-01-13T09:00:12.757Z,1.97
2023-01-13T09:02:39.368Z,1.94
2023-01-13T09:05:07.691Z,1.92
2023-01-13T09:07:36.487Z,1.92
2023-01-13T09:10:05.620Z,1.95
2023-01-13T09:12:50.870Z,1.96
2023-01-13T09:15:18.573Z,1.99
2023-01-13T09:17:45.643Z,2.04
2023-01-13T09:20:13.128Z,2.09
2023-01-13T09:22:40.667Z,2.07
2023-01-13T09:25:07.960Z,2.08
2023-01-13T09:27:34.601Z,2.06
2023-01-13T09:30:01.182Z,2.07
2023-01-13T09:32:27.809Z,2.08
2023-01-13T09:35:00.085Z,2.08
2023-01-13T09:37:37.935Z,2.13
2023-01-13T09:40:22.744Z,2.20
2023-01-13T09:43:13.482Z,2.25
2023-01-13T09:45:46.607Z,2.26
2023-01-13T09:48:26.725Z,2.20
2023-01-13T09:51:28.173Z,2.22
2023-01-13T09:53:59.860Z,2.21
2023-01-13T09:56:26.659Z,2.25
2023-01-13T09:58:53.264Z,2.28
2023-01-13T10:01:35.443Z,2.31
2023-01-13T10:04:12.541Z,2.32
2023-01-13T10:06:42.549Z,2.37
2023-01-13T10:09:17.781Z,2.37
2023-01-13T10:12:06.242Z,2.36
2023-01-13T10:14:41.964Z,2.34
2023-01-13T10:17:15.447Z,2.37
2023-01-13T10:19:48.841Z,2.44
2023-01-13T10:22:33.650Z,2.51
2023-01-13T10:25:20.458Z,2.54
2023-01-13T10:27:50.108Z,2.56
2023-01-13T10:30:34.199Z,2.57
2023-01-13T10:33:12.699Z,2.53
2023-01-13T10:35:49.337Z,2.51
2023-01-13T10:38:22.314Z,2.39
2023-01-13T10:41:00.802Z,2.38
2023-01-13T10:43:29.143Z,2.41
2023-01-13T10:46:10.731Z,2.39
2023-01-13T10:48:41.060Z,2.41
2023-01-13T10:51:14.267Z,2.48
2023-01-13T10:53:57.856Z,2.45
2023-01-13T10:56:27.923Z,2.41
2023-01-13T10:59:26.880Z,2.46
2023-01-13T11:02:10.193Z,2.48
2023-01-13T11:04:55.155Z,2.53
2023-01-13T11:07:40.260Z,2.52
2023-01-13T11:10:09.776Z,2.52
2023-01-13T11:13:05.498Z,2.55
2023-01-13T11:15:44.574Z,2.59
2023-01-13T11:18:36.562Z,2.67
2023-01-13T11:21:12.073Z,2.72
2023-01-13T11:23:45.294Z,2.71
2023-01-13T11:26:25.352Z,2.72
2023-01-13T11:29:11.231Z,2.75
2023-01-13T11:31:46.251Z,2.73
2023-01-13T11:34:24.366Z,2.73
2023-01-13T11:36:54.987Z,2.75
2023-01-13T11:39:48.743Z,2.74
2023-01-13T11:42:25.799Z,2.77
2023-01-13T11:45:07.645Z,2.83
2023-01-13T11:47:36.582Z,2.82
2023-01-13T11:50:07.529Z,2.79
2023-01-13T11:52:47.094Z,2.72
2023-01-13T11:55:22.829Z,2.71
2023-01-13T11:58:03.187Z,2.75
2023-01-13T12:00:41.971Z,2.78
2023-01-13T12:03:32.462Z,2.82
2023-01-13T12:06:06.571Z,2.82
2023-01-13T12:08:55.781Z,2.84
2023-01-13T12:11:33.925Z,2.82
2023-01-13T12:14:21.687Z,2.81
2023-01-13T12:16:50.747Z,2.88
2023-01-13T12:19:24.577Z,2.85
2023-01-13T12:22:23.402Z,2.83
2023-01-13T12:25:16.883Z,2.82
2023-01-13T12:27:48.848Z,2.87
2023-01-13T12:30:21.292Z,2.89
2023-01-13T12:32:49.550Z,2.91
2023-01-13T12:35:28.296Z,2.93
2023-01-13T12:38:13.427Z,2.97
2023-01-13T12:40:48.080Z,2.97
2023-01-13T12:43:41.807Z,3.00
2023-01-13T12:46:23.290Z,2.98
2023-01-13T12:48:57.048Z,2.99
2023-01-13T12:51:33.374Z,3.04
2023-01-13T12:54:01.725Z,3.08
2023-01-13T12:56:36.992Z,3.12
2023-01-13T12:59:19.187Z,3.16
2023-01-13T13:01:51.053Z,3.18
2023-01-13T13:04:20.558Z,3.23
2023-01-13T13:07:09.338Z,3.27
2023-01-13T13:09:44.916Z,3.28
2023-01-13T13:12:49.021Z,3.30
2023-01-13T13:15:24.791Z,3.33
2023-01-13T13:18:17.550Z,3.36
2023-01-13T13:20:56.422Z,3.39
2023-01-13T13:23:57.174Z,3.41
2023-01-13T13:26:31.744Z,3.44
2023-01-13T13:28:58.232Z,3.49
2023-01-13T13:31:45.098Z,3.53
2023-01-13T13:34:27.950Z,3.57
2023-01-13T13:37:21.880Z,3.62
2023-01-13T13:40:07.174Z,3.65
2023-01-13T13:43:18.429Z,3.69
2023-01-13T13:46:10.401Z,3.75
2023-01-13T13:48:37.331Z,3.75
2023-01-13T13:51:22.824Z,3.73
2023-01-13T13:53:49.427Z,3.76
2023-01-13T13:56:20.834Z,3.78
2023-01-13T13:58:48.991Z,3.81
2023-01-13T14:01:36.705Z,3.84
2023-01-13T14:04:14.346Z,3.89
2023-01-13T14:06:56.756Z,3.90
2023-01-13T14:09:25.167Z,3.94
2023-01-13T14:12:04.263Z,3.96
2023-01-13T14:14:30.853Z,3.97
2023-01-13T14:16:58.623Z,4.00
2023-01-13T14:19:30.240Z,4.00
2023-01-13T14:22:00.786Z,4.02
2023-01-13T14:24:29.515Z,4.03
2023-01-13T14:27:16.601Z,4.04
2023-01-13T14:29:43.885Z,4.05
2023-01-13T14:32:15.187Z,4.04
2023-01-13T14:34:41.783Z,4.06
2023-01-13T14:37:36.647Z,4.06
2023-01-13T14:40:03.636Z,4.07
2023-01-13T14:42:31.605Z,4.07
2023-01-13T14:44:58.618Z,4.10
2023-01-13T14:47:29.407Z,4.10
2023-01-13T14:50:21.983Z,4.08
2023-01-13T14:52:50.971Z,4.06
2023-01-13T14:55:33.798Z,4.04
2023-01-13T14:58:21.953Z,4.06
2023-01-13T15:00:49.860Z,4.06
2023-01-13T15:03:20.831Z,4.06
2023-01-13T15:05:52.251Z,4.07
2023-01-13T15:08:36.231Z,4.06
2023-01-13T15:11:05.814Z,4.07
2023-01-13T15:13:35.908Z,4.08
2023-01-13T15:16:25.128Z,4.08
2023-01-13T15:18:53.306Z,4.07
2023-01-13T15:21:21.474Z,4.07
2023-01-13T15:23:48.070Z,4.07
2023-01-13T15:26:17.266Z,4.06
2023-01-13T15:28:43.858Z,4.07
2023-01-13T15:31:10.563Z,4.07
2023-01-13T15:33:37.255Z,4.06
2023-01-13T15:36:06.518Z,4.02
2023-01-13T15:38:33.071Z,4.04
2023-01-13T15:40:59.590Z,4.02
2023-01-13T15:43:44.785Z,4.01
2023-01-13T15:46:35.821Z,4.00
2023-01-13T15:49:09.875Z,4.01
2023-01-13T15:51:36.996Z,3.99
2023-01-13T15:54:03.822Z,3.98
2023-01-13T15:56:30.587Z,3.97
2023-01-13T15:58:57.398Z,3.98
2023-01-13T16:01:24.019Z,3.98
2023-01-13T16:03:52.189Z,3.99
2023-01-13T16:06:32.584Z,4.00
2023-01-13T16:08:59.588Z,4.00
2023-01-13T16:11:26.134Z,4.02
2023-01-13T16:13:52.732Z,4.03
2023-01-13T16:16:24.948Z,4.02
2023-01-13T16:18:52.677Z,4.03
2023-01-13T16:21:20.933Z,4.06
2023-01-13T16:23:49.161Z,4.05
2023-01-13T16:26:20.497Z,4.05
2023-01-13T16:28:47.387Z,4.02
2023-01-13T16:31:23.960Z,4.03
2023-01-13T16:33:50.965Z,4.02
2023-01-13T16:36:19.516Z,4.02
2023-01-13T16:38:47.333Z,4.02
2023-01-13T16:41:14.052Z,4.03
2023-01-13T16:43:40.675Z,4.01
2023-01-13T16:46:25.465Z,4.00
2023-01-13T16:48:54.478Z,4.00
2023-01-13T16:51:22.153Z,3.98
2023-01-13T16:53:49.672Z,3.97
2023-01-13T16:56:27.344Z,3.95
2023-01-13T16:58:58.936Z,3.94
2023-01-13T17:01:31.388Z,3.93
2023-01-13T17:03:59.084Z,3.93
2023-01-13T17:06:30.568Z,3.94
2023-01-13T17:09:05.036Z,3.95
2023-01-13T17:11:32.177Z,3.91
2023-01-13T17:13:59.026Z,3.89
2023-01-13T17:16:26.325Z,3.88
2023-01-13T17:18:53.700Z,3.88
2023-01-13T17:21:20.307Z,3.87
2023-01-13T17:23:47.637Z,3.87
2023-01-13T17:26:42.221Z,3.89
2023-01-13T17:29:13.274Z,3.88
2023-01-13T17:31:39.909Z,3.89
2023-01-13T17:34:06.620Z,3.91
2023-01-13T17:36:33.454Z,3.88
2023-01-13T17:39:00.224Z,3.87
2023-01-13T17:41:26.980Z,3.89
2023-01-13T17:43:53.830Z,3.89
2023-01-13T17:46:22.868Z,3.88
2023-01-13T17:48:51.011Z,3.89
2023-01-13T17:51:18.829Z,3.89
2023-01-13T17:53:45.751Z,3.91
2023-01-13T17:56:14.624Z,3.88
2023-01-13T17:58:41.874Z,3.89
2023-01-13T18:01:14.503Z,3.91
2023-01-13T18:03:41.183Z,3.94
2023-01-13T18:06:11.271Z,3.95
2023-01-13T18:08:37.896Z,3.96
2023-01-13T18:11:04.594Z,3.97
2023-01-13T18:13:33.794Z,3.99
2023-01-13T18:16:11.326Z,3.99
2023-01-13T18:18:39.520Z,4.00
2023-01-13T18:21:25.615Z,4.00
2023-01-13T18:24:15.179Z,4.00
2023-01-13T18:27:00.825Z,4.01
2023-01-13T18:29:27.370Z,4.02
2023-01-13T18:31:53.933Z,4.02
2023-01-13T18:34:21.032Z,4.03
2023-01-13T18:36:47.612Z,4.05
2023-01-13T18:39:14.183Z,4.03
2023-01-13T18:41:59.692Z,4.03
2023-01-13T18:44:26.345Z,4.03
2023-01-13T18:46:52.956Z,4.03
2023-01-13T18:49:19.494Z,4.05
2023-01-13T18:51:46.080Z,4.06
2023-01-13T18:54:12.674Z,4.06
2023-01-13T18:56:39.279Z,4.04
2023-01-13T18:59:05.942Z,4.06
2023-01-13T19:01:33.170Z,4.08
2023-01-13T19:04:04.681Z,4.09
2023-01-13T19:06:33.743Z,4.11
2023-01-13T19:09:01.827Z,4.13
2023-01-13T19:11:30.587Z,4.13
2023-01-13T19:13:57.123Z,4.14
2023-01-13T19:16:23.754Z,4.16
2023-01-13T19:18:50.295Z,4.16
2023-01-13T19:21:16.912Z,4.16
2023-01-13T19:23:43.489Z,4.16
2023-01-13T19:26:12.176Z,4.17
2023-01-13T19:28:40.189Z,4.19
2023-01-13T19:31:09.988Z,4.17
2023-01-13T19:33:39.794Z,4.16
2023-01-13T19:36:07.683Z,4.16
2023-01-13T19:38:36.673Z,4.18
2023-01-13T19:41:11.066Z,4.21
2023-01-13T19:43:56.475Z,4.22
2023-01-13T19:46:26.039Z,4.22
2023-01-13T19:48:52.675Z,4.22
2023-01-13T19:51:19.270Z,4.24
2023-01-13T19:53:46.942Z,4.23
2023-01-13T19:56:14.559Z,4.23
2023-01-13T19:58:42.094Z,4.22
2023-01-13T20:01:10.217Z,4.21
2023-01-13T20:03:37.826Z,4.22
2023-01-13T20:06:10.330Z,4.23
2023-01-13T20:08:37.714Z,4.23
2023-01-13T20:11:22.582Z,4.24
2023-01-13T20:13:49.596Z,4.19
2023-01-13T20:16:16.199Z,4.16
2023-01-13T20:18:42.786Z,4.15
2023-01-13T20:21:09.547Z,4.14
2023-01-13T20:23:36.199Z,4.13
2023-01-13T20:26:07.725Z,4.11
2023-01-13T20:28:37.362Z,4.11
2023-01-13T20:31:09.587Z,4.12
2023-01-13T20:33:36.904Z,4.11
2023-01-13T20:36:03.698Z,4.10
2023-01-13T20:38:37.341Z,4.08
2023-01-13T20:41:24.297Z,4.11
2023-01-13T20:43:51.410Z,4.10
2023-01-13T20:46:18.832Z,4.10
2023-01-13T20:48:45.565Z,4.10
2023-01-13T20:51:12.187Z,4.11
2023-01-13T20:53:38.799Z,4.13
2023-01-13T20:56:07.243Z,4.12
2023-01-13T20:58:33.828Z,4.10
2023-01-13T21:01:01.094Z,4.08
2023-01-13T21:03:28.040Z,4.07
2023-01-13T21:05:56.825Z,4.07
2023-01-13T21:08:23.439Z,4.10
2023-01-13T21:10:50.107Z,4.10
2023-01-13T21:13:35.303Z,4.10
2023-01-13T21:16:02.090Z,4.10
2023-01-13T21:18:46.893Z,4.11
2023-01-13T21:21:13.834Z,4.11
2023-01-13T21:23:42.392Z,4.12
2023-01-13T21:26:10.848Z,4.12
2023-01-13T21:28:37.527Z,4.11
2023-01-13T21:31:08.438Z,4.09
2023-01-13T21:33:35.932Z,4.08
2023-01-13T21:36:06.528Z,4.05
2023-01-13T21:38:33.726Z,4.08
2023-01-13T21:41:02.650Z,4.07
2023-01-13T21:43:47.987Z,4.07
2023-01-13T21:46:33.926Z,4.09
2023-01-13T21:49:00.628Z,4.06
2023-01-13T21:51:28.118Z,4.07
2023-01-13T21:53:55.420Z,4.11
2023-01-13T21:56:22.838Z,4.11
2023-01-13T21:58:51.680Z,4.13
2023-01-13T22:01:19.359Z,4.16
2023-01-13T22:04:04.821Z,4.18
2023-01-13T22:06:31.530Z,4.21
2023-01-13T22:09:01.086Z,4.17
2023-01-13T22:11:28.656Z,4.17
2023-01-13T22:14:09.091Z,4.15
2023-01-13T22:16:49.527Z,4.16
2023-01-13T22:19:18.178Z,4.18
2023-01-13T22:21:44.827Z,4.19
2023-01-13T22:24:11.789Z,4.16
2023-01-13T22:26:38.425Z,4.16
2023-01-13T22:29:05.140Z,4.16
2023-01-13T22:31:31.886Z,4.17
2023-01-13T22:33:58.646Z,4.17
2023-01-13T22:36:25.287Z,4.19
2023-01-13T22:38:56.325Z,4.18
2023-01-13T22:41:23.535Z,4.19
2023-01-13T22:43:50.062Z,4.20
2023-01-13T22:46:17.177Z,4.20
2023-01-13T22:48:44.325Z,4.20
2023-01-13T22:51:16.183Z,4.22
2023-01-13T22:53:43.010Z,4.21
2023-01-13T22:56:16.676Z,4.22
2023-01-13T22:58:44.380Z,4.24
2023-01-13T23:01:13.482Z,4.25
2023-01-13T23:03:40.711Z,4.28
2023-01-13T23:06:07.522Z,4.28
2023-01-13T23:08:35.039Z,4.29
2023-01-13T23:11:03.405Z,4.28
2023-01-13T23:13:30.062Z,4.30
2023-01-13T23:16:00.772Z,4.30
2023-01-13T23:18:27.417Z,4.29
2023-01-13T23:20:54.194Z,4.29
2023-01-13T23:23:21.124Z,4.29
2023-01-13T23:25:53.535Z,4.27
2023-01-13T23:28:21.189Z,4.24
2023-01-13T23:30:48.715Z,4.19
2023-01-13T23:33:15.374Z,4.18
2023-01-13T23:35:41.890Z,4.15
2023-01-13T23:38:08.480Z,4.13
2023-01-13T23:40:35.257Z,4.14
2023-01-13T23:43:02.220Z,4.14
2023-01-13T23:45:28.799Z,4.14
2023-01-13T23:47:55.862Z,4.13
2023-01-13T23:50:22.635Z,4.15
2023-01-13T23:52:49.208Z,4.13
2023-01-13T23:55:15.827Z,4.14
2023-01-13T23:57:42.758Z,4.14
